createdAt,value
2019-05-16T00:01:32.521Z,5.77
2019-05-16T00:04:02.631Z,5.23
2019-05-16T00:06:32.780Z,5.60
2019-05-16T00:09:05.468Z,5.50
2019-05-16T00:11:35.623Z,5.40
2019-05-16T00:14:08.184Z,4.97
2019-05-16T00:16:38.115Z,5.23
2019-05-16T00:19:09.111Z,5.70
2019-05-16T00:21:39.521Z,5.13
2019-05-16T00:24:11.370Z,5.80
2019-05-16T00:26:41.616Z,5.47
2019-05-16T00:29:11.826Z,5.43
2019-05-16T00:31:42.036Z,5.67
2019-05-16T00:34:12.178Z,4.87
2019-05-16T00:36:42.517Z,4.97
2019-05-16T00:39:12.921Z,5.20
2019-05-16T00:41:43.088Z,5.43
2019-05-16T00:44:13.494Z,5.37
2019-05-16T00:46:45.194Z,5.00
2019-05-16T00:49:15.376Z,5.50
2019-05-16T00:51:45.573Z,5.27
2019-05-16T00:54:15.850Z,4.90
2019-05-16T00:56:48.600Z,5.23
2019-05-16T00:59:18.925Z,5.63
2019-05-16T01:01:50.449Z,5.47
2019-05-16T01:04:20.727Z,4.80
2019-05-16T01:06:51.524Z,4.67
2019-05-16T01:09:21.758Z,5.30
2019-05-16T01:11:51.965Z,5.23
2019-05-16T01:14:22.266Z,5.00
2019-05-16T01:16:55.571Z,5.10
2019-05-16T01:19:27.749Z,5.00
2019-05-16T01:21:58.986Z,5.30
2019-05-16T01:24:29.432Z,5.37
2019-05-16T01:26:59.779Z,5.07
2019-05-16T01:29:30.003Z,4.63
2019-05-16T01:32:00.191Z,5.43
2019-05-16T01:34:30.493Z,5.27
2019-05-16T01:37:00.636Z,5.07
2019-05-16T01:39:30.853Z,5.33
2019-05-16T01:42:01.089Z,4.90
2019-05-16T01:44:31.251Z,5.43
2019-05-16T01:47:01.438Z,5.17
2019-05-16T01:49:31.593Z,5.03
2019-05-16T01:52:01.760Z,5.00
2019-05-16T01:54:32.243Z,5.03
2019-05-16T01:57:04.023Z,5.70
2019-05-16T01:59:34.192Z,5.37
2019-05-16T02:02:04.328Z,5.17
2019-05-16T02:04:37.963Z,5.53
2019-05-16T02:07:08.538Z,4.73
2019-05-16T02:09:38.868Z,5.10
2019-05-16T02:12:10.787Z,5.07
2019-05-16T02:14:41.394Z,5.53
2019-05-16T02:17:11.622Z,4.90
2019-05-16T02:19:41.937Z,5.23
2019-05-16T02:22:12.182Z,5.60
2019-05-16T02:24:42.394Z,5.20
2019-05-16T02:27:13.697Z,5.33
2019-05-16T02:29:44.047Z,5.60
2019-05-16T02:32:15.661Z,5.33
2019-05-16T02:34:45.798Z,5.23
2019-05-16T02:37:24.038Z,5.27
2019-05-16T02:39:51.562Z,5.43
2019-05-16T02:42:21.230Z,5.23
2019-05-16T02:44:52.651Z,5.30
2019-05-16T02:47:22.781Z,4.77
2019-05-16T02:49:52.892Z,5.03
2019-05-16T02:52:23.018Z,5.10
2019-05-16T02:54:53.115Z,4.53
2019-05-16T02:57:23.356Z,4.97
2019-05-16T02:59:53.509Z,5.37
2019-05-16T03:02:23.601Z,4.33
2019-05-16T03:04:53.687Z,5.00
2019-05-16T03:07:37.963Z,4.90
2019-05-16T03:09:57.034Z,4.70
2019-05-16T03:12:30.945Z,4.37
2019-05-16T03:15:02.420Z,4.90
2019-05-16T03:17:36.214Z,4.90
2019-05-16T03:20:06.730Z,4.73
2019-05-16T03:22:40.951Z,4.80
2019-05-16T03:25:11.934Z,4.43
2019-05-16T03:27:42.230Z,4.83
2019-05-16T03:30:15.985Z,4.70
2019-05-16T03:32:47.378Z,4.07
2019-05-16T03:35:23.859Z,4.07
2019-05-16T03:37:56.906Z,4.67
2019-05-16T03:40:26.370Z,4.30
2019-05-16T03:42:56.495Z,4.30
2019-05-16T03:45:26.697Z,4.70
2019-05-16T03:47:56.730Z,4.30
2019-05-16T03:50:26.963Z,4.17
2019-05-16T03:52:57.166Z,4.67
2019-05-16T03:55:32.084Z,4.97
2019-05-16T03:58:01.149Z,4.53
2019-05-16T04:00:55.993Z,4.20
2019-05-16T04:03:28.872Z,3.97
2019-05-16T04:06:01.260Z,3.83
2019-05-16T04:08:31.182Z,4.43
2019-05-16T04:11:02.601Z,3.73
2019-05-16T04:13:32.990Z,3.80
2019-05-16T04:16:03.323Z,3.43
2019-05-16T04:18:33.482Z,3.97
2019-05-16T04:21:03.791Z,3.40
2019-05-16T04:23:34.135Z,3.53
2019-05-16T04:26:04.263Z,3.87
2019-05-16T04:28:34.742Z,3.40
2019-05-16T04:31:04.887Z,3.20
2019-05-16T04:33:35.058Z,3.77
2019-05-16T04:36:05.178Z,3.00
2019-05-16T04:38:41.385Z,3.60
2019-05-16T04:41:07.284Z,3.27
2019-05-16T04:43:37.458Z,3.07
2019-05-16T04:46:07.611Z,3.30
2019-05-16T04:48:41.444Z,3.20
2019-05-16T04:51:10.649Z,3.07
2019-05-16T04:53:42.556Z,3.40
2019-05-16T04:56:13.258Z,3.70
2019-05-16T04:58:43.538Z,2.80
2019-05-16T05:01:13.713Z,3.10
2019-05-16T05:04:00.119Z,4.13
2019-05-16T05:06:15.856Z,3.83
2019-05-16T05:08:59.120Z,3.30
2019-05-16T05:11:26.610Z,3.30
2019-05-16T05:13:56.787Z,2.80
2019-05-16T05:16:27.192Z,2.80
2019-05-16T05:19:00.302Z,3.00
2019-05-16T05:21:31.426Z,3.40
2019-05-16T05:24:01.719Z,3.10
2019-05-16T05:26:34.864Z,3.17
2019-05-16T05:29:06.301Z,3.00
2019-05-16T05:31:36.479Z,3.13
2019-05-16T05:34:06.683Z,2.93
2019-05-16T05:36:40.869Z,2.63
2019-05-16T05:39:15.594Z,2.43
2019-05-16T05:41:45.202Z,2.43
2019-05-16T05:44:15.401Z,2.90
2019-05-16T05:46:45.626Z,2.67
2019-05-16T05:49:20.504Z,2.10
2019-05-16T05:51:50.892Z,2.17
2019-05-16T05:54:21.080Z,2.33
2019-05-16T05:56:51.254Z,2.10
2019-05-16T05:59:24.025Z,1.70
2019-05-16T06:01:54.228Z,2.17
2019-05-16T06:04:24.358Z,1.80
2019-05-16T06:06:54.593Z,2.37
2019-05-16T06:09:29.122Z,2.00
2019-05-16T06:11:56.775Z,2.37
2019-05-16T06:14:27.007Z,2.20
2019-05-16T06:17:00.377Z,2.80
2019-05-16T06:19:30.800Z,3.47
2019-05-16T06:22:01.569Z,2.23
2019-05-16T06:24:32.126Z,2.63
2019-05-16T06:27:03.902Z,2.47
2019-05-16T06:29:34.204Z,2.27
2019-05-16T06:32:04.430Z,2.00
2019-05-16T06:34:34.676Z,2.00
2019-05-16T06:37:04.870Z,2.00
2019-05-16T06:39:42.043Z,2.37
2019-05-16T06:42:06.960Z,1.70
2019-05-16T06:44:37.193Z,2.30
2019-05-16T06:47:16.969Z,1.80
2019-05-16T06:49:40.258Z,1.70
2019-05-16T06:52:10.567Z,1.87
2019-05-16T06:54:40.828Z,1.57
2019-05-16T06:57:11.226Z,1.73
2019-05-16T06:59:41.552Z,1.83
2019-05-16T07:02:25.201Z,1.60
2019-05-16T07:04:43.554Z,1.60
2019-05-16T07:07:13.983Z,1.17
2019-05-16T07:09:57.177Z,1.77
2019-05-16T07:12:15.978Z,1.90
2019-05-16T07:14:46.170Z,2.00
2019-05-16T07:17:16.442Z,1.63
2019-05-16T07:19:46.672Z,1.67
2019-05-16T07:22:16.847Z,2.00
2019-05-16T07:24:46.988Z,1.80
2019-05-16T07:27:17.190Z,1.90
2019-05-16T07:29:47.330Z,1.87
2019-05-16T07:32:19.710Z,1.40
2019-05-16T07:34:50.568Z,1.90
2019-05-16T07:37:22.832Z,1.80
2019-05-16T07:39:53.014Z,1.33
2019-05-16T07:42:24.773Z,1.50
2019-05-16T07:44:55.025Z,1.90
2019-05-16T07:47:25.168Z,1.30
2019-05-16T07:49:59.583Z,1.60
2019-05-16T07:52:35.208Z,1.27
2019-05-16T07:55:03.976Z,1.20
2019-05-16T07:57:34.055Z,1.30
2019-05-16T08:00:04.664Z,1.20
2019-05-16T08:02:34.900Z,1.00
2019-05-16T08:05:06.942Z,1.10
2019-05-16T08:07:37.324Z,1.07
2019-05-16T08:10:10.601Z,1.07
2019-05-16T08:12:43.129Z,1.10
2019-05-16T08:15:13.780Z,1.10
2019-05-16T08:17:44.625Z,1.13
2019-05-16T08:20:14.930Z,1.37
2019-05-16T08:22:45.118Z,1.60
2019-05-16T08:25:15.467Z,1.10
2019-05-16T08:27:45.793Z,2.20
2019-05-16T08:30:21.070Z,1.60
2019-05-16T08:32:52.744Z,1.17
2019-05-16T08:35:22.836Z,5.87
2019-05-16T08:37:53.031Z,1.67
2019-05-16T08:40:24.404Z,1.50
2019-05-16T08:42:54.750Z,4.13
2019-05-16T08:45:24.887Z,3.07
2019-05-16T08:47:55.096Z,2.43
2019-05-16T08:50:25.290Z,1.13
2019-05-16T08:52:55.509Z,1.30
2019-05-16T08:55:25.606Z,1.30
2019-05-16T08:57:55.730Z,1.00
2019-05-16T09:00:26.481Z,1.20
2019-05-16T09:02:56.699Z,1.13
2019-05-16T09:05:26.908Z,1.50
2019-05-16T09:08:00.838Z,1.40
2019-05-16T09:10:58.655Z,1.47
2019-05-16T09:13:00.998Z,0.90
2019-05-16T09:15:34.521Z,1.30
2019-05-16T09:18:07.515Z,1.50
2019-05-16T09:20:37.456Z,2.53
2019-05-16T09:23:08.699Z,1.10
2019-05-16T09:25:39.039Z,1.00
2019-05-16T09:28:09.290Z,1.63
2019-05-16T09:30:40.610Z,1.70
2019-05-16T09:33:18.913Z,1.37
2019-05-16T09:35:50.498Z,1.33
2019-05-16T09:38:23.775Z,1.03
2019-05-16T09:40:53.100Z,1.00
2019-05-16T09:43:23.331Z,1.13
2019-05-16T09:45:59.935Z,1.20
2019-05-16T09:48:28.047Z,2.60
2019-05-16T09:50:57.983Z,1.30
2019-05-16T09:53:28.264Z,1.27
2019-05-16T09:55:58.740Z,1.30
2019-05-16T09:58:29.045Z,1.60
2019-05-16T10:00:59.511Z,1.30
2019-05-16T10:03:29.741Z,1.20
2019-05-16T10:05:59.987Z,1.60
2019-05-16T10:08:30.231Z,1.17
2019-05-16T10:11:00.887Z,1.40
2019-05-16T10:13:31.127Z,1.30
2019-05-16T10:16:01.573Z,1.40
2019-05-16T10:18:31.881Z,1.30
2019-05-16T10:21:02.082Z,1.43
2019-05-16T10:23:36.439Z,1.30
2019-05-16T10:26:06.748Z,1.50
2019-05-16T10:28:38.475Z,1.30
2019-05-16T10:31:09.855Z,1.27
2019-05-16T10:33:40.171Z,1.43
2019-05-16T10:36:10.358Z,1.30
2019-05-16T10:38:40.471Z,1.40
2019-05-16T10:41:13.835Z,1.50
2019-05-16T10:43:44.250Z,1.50
2019-05-16T10:46:17.447Z,1.40
2019-05-16T10:48:47.481Z,1.60
2019-05-16T10:51:17.645Z,1.50
2019-05-16T10:54:13.137Z,1.53
2019-05-16T10:56:19.799Z,1.43
2019-05-16T10:59:14.162Z,1.43
2019-05-16T11:01:27.554Z,1.17
2019-05-16T11:03:56.640Z,1.33
2019-05-16T11:06:29.160Z,1.47
2019-05-16T11:08:57.597Z,1.37
2019-05-16T11:11:27.744Z,1.33
2019-05-16T11:13:57.974Z,1.40
2019-05-16T11:16:29.667Z,1.03
2019-05-16T11:19:14.442Z,1.50
2019-05-16T11:21:32.593Z,1.57
2019-05-16T11:24:02.790Z,1.37
2019-05-16T11:26:32.867Z,1.47
2019-05-16T11:29:03.098Z,1.50
2019-05-16T11:31:33.399Z,1.30
2019-05-16T11:34:03.627Z,1.40
2019-05-16T11:36:33.747Z,1.50
2019-05-16T11:39:08.617Z,1.60
2019-05-16T11:41:39.109Z,2.20
2019-05-16T11:44:09.293Z,1.70
2019-05-16T11:46:39.463Z,2.47
2019-05-16T11:49:10.812Z,1.87
2019-05-16T11:51:40.924Z,2.00
2019-05-16T11:54:12.147Z,1.70
2019-05-16T11:56:42.282Z,2.20
2019-05-16T11:59:12.467Z,1.90
2019-05-16T12:01:42.651Z,2.12
2019-05-16T12:04:12.799Z,2.60
2019-05-16T12:06:43.017Z,2.03
2019-05-16T12:09:13.419Z,2.23
2019-05-16T12:11:45.160Z,2.00
2019-05-16T12:14:16.564Z,1.90
2019-05-16T12:16:47.417Z,2.63
2019-05-16T12:19:18.242Z,2.60
2019-05-16T12:21:48.566Z,2.07
2019-05-16T12:24:31.972Z,1.52
2019-05-16T12:26:50.561Z,1.80
2019-05-16T12:29:20.744Z,1.52
2019-05-16T12:31:57.574Z,1.80
2019-05-16T12:34:22.831Z,1.40
2019-05-16T12:36:53.015Z,1.50
2019-05-16T12:39:23.391Z,2.23
2019-05-16T12:41:53.583Z,1.83
2019-05-16T12:44:26.871Z,2.10
2019-05-16T12:46:57.129Z,2.85
2019-05-16T12:49:27.330Z,2.87
2019-05-16T12:51:59.731Z,2.33
2019-05-16T12:54:31.036Z,2.62
2019-05-16T12:57:01.424Z,2.07
2019-05-16T12:59:31.585Z,2.30
2019-05-16T13:02:01.768Z,2.17
2019-05-16T13:04:32.050Z,1.90
2019-05-16T13:07:02.388Z,2.50
2019-05-16T13:09:32.672Z,2.70
2019-05-16T13:12:06.910Z,2.50
2019-05-16T13:14:40.317Z,2.67
2019-05-16T13:17:19.521Z,2.70
2019-05-16T13:19:57.656Z,2.40
2019-05-16T13:22:27.897Z,2.17
2019-05-16T13:24:58.131Z,1.85
2019-05-16T13:27:28.346Z,1.80
2019-05-16T13:29:58.698Z,2.53
2019-05-16T13:32:28.931Z,2.17
2019-05-16T13:34:59.388Z,1.80
2019-05-16T13:37:30.560Z,1.93
2019-05-16T13:40:00.749Z,1.80
2019-05-16T13:42:30.977Z,1.92
2019-05-16T13:45:01.776Z,1.67
2019-05-16T13:47:32.139Z,1.57
2019-05-16T13:50:04.456Z,1.87
2019-05-16T13:52:36.610Z,1.52
2019-05-16T13:55:08.279Z,1.90
2019-05-16T13:57:38.339Z,1.60
2019-05-16T14:00:09.799Z,1.80
2019-05-16T14:02:41.419Z,1.62
2019-05-16T14:05:12.179Z,1.60
2019-05-16T14:07:42.320Z,1.85
2019-05-16T14:10:12.758Z,1.60
2019-05-16T14:12:42.878Z,2.37
2019-05-16T14:15:13.705Z,1.75
2019-05-16T14:17:43.929Z,1.50
2019-05-16T14:20:17.970Z,2.20
2019-05-16T14:22:47.121Z,2.33
2019-05-16T14:25:17.513Z,1.62
2019-05-16T14:27:48.580Z,1.67
2019-05-16T14:30:21.956Z,1.45
2019-05-16T14:32:52.274Z,2.00
2019-05-16T14:35:22.753Z,2.93
2019-05-16T14:37:57.391Z,2.10
2019-05-16T14:40:27.774Z,2.00
2019-05-16T14:42:58.245Z,2.03
2019-05-16T14:45:28.629Z,1.90
2019-05-16T14:47:58.928Z,2.27
2019-05-16T14:50:29.067Z,2.27
2019-05-16T14:53:00.279Z,2.00
2019-05-16T14:55:32.989Z,2.50
2019-05-16T14:58:03.181Z,2.00
2019-05-16T15:00:37.951Z,1.80
2019-05-16T15:03:08.193Z,2.17
2019-05-16T15:05:42.531Z,1.80
2019-05-16T15:08:11.064Z,1.60
2019-05-16T15:10:46.742Z,2.85
2019-05-16T15:13:17.433Z,2.27
2019-05-16T15:15:47.887Z,2.20
2019-05-16T15:18:18.273Z,1.87
2019-05-16T15:20:49.419Z,1.87
2019-05-16T15:23:19.708Z,2.20
2019-05-16T15:25:51.444Z,2.00
2019-05-16T15:28:54.665Z,1.80
2019-05-16T15:30:57.576Z,3.00
2019-05-16T15:33:27.856Z,2.30
2019-05-16T15:35:58.167Z,2.70
2019-05-16T15:38:28.660Z,2.50
2019-05-16T15:41:00.557Z,3.05
2019-05-16T15:43:30.838Z,2.87
2019-05-16T15:46:01.663Z,3.45
2019-05-16T15:48:32.148Z,4.20
2019-05-16T15:51:02.322Z,4.37
2019-05-16T15:53:32.704Z,4.33
2019-05-16T15:56:02.900Z,5.77
2019-05-16T15:58:33.291Z,4.30
2019-05-16T16:01:03.583Z,4.07
2019-05-16T16:03:34.088Z,3.60
2019-05-16T16:06:06.835Z,3.87
2019-05-16T16:08:37.605Z,3.83
2019-05-16T16:11:07.917Z,4.47
2019-05-16T16:13:38.189Z,4.93
2019-05-16T16:16:10.045Z,4.37
2019-05-16T16:18:40.516Z,4.80
2019-05-16T16:21:10.743Z,4.00
2019-05-16T16:23:40.898Z,4.57
2019-05-16T16:26:11.147Z,4.07
2019-05-16T16:28:41.388Z,4.00
2019-05-16T16:31:11.634Z,4.27
2019-05-16T16:33:41.966Z,4.70
2019-05-16T16:36:12.130Z,4.07
2019-05-16T16:38:42.687Z,4.93
2019-05-16T16:41:13.491Z,5.20
2019-05-16T16:43:43.659Z,4.63
2019-05-16T16:46:16.614Z,4.70
2019-05-16T16:48:46.241Z,4.23
2019-05-16T16:51:17.581Z,4.93
2019-05-16T16:53:48.202Z,4.53
2019-05-16T16:56:20.017Z,5.13
2019-05-16T16:58:50.290Z,4.37
2019-05-16T17:01:20.435Z,4.73
2019-05-16T17:03:54.554Z,3.97
2019-05-16T17:06:23.595Z,3.83
2019-05-16T17:08:53.768Z,3.97
2019-05-16T17:11:26.445Z,3.27
2019-05-16T17:13:56.855Z,4.40
2019-05-16T17:16:29.154Z,3.63
2019-05-16T17:18:58.981Z,3.03
2019-05-16T17:21:29.189Z,3.33
2019-05-16T17:23:59.422Z,2.87
2019-05-16T17:26:29.820Z,3.27
2019-05-16T17:29:00.163Z,2.80
2019-05-16T17:31:31.952Z,2.50
2019-05-16T17:34:02.378Z,2.87
2019-05-16T17:36:32.564Z,3.30
2019-05-16T17:39:04.575Z,2.50
2019-05-16T17:41:38.167Z,3.30
2019-05-16T17:44:08.530Z,2.77
2019-05-16T17:46:40.963Z,2.63
2019-05-16T17:49:10.959Z,2.53
2019-05-16T17:51:42.149Z,2.80
2019-05-16T17:54:12.415Z,2.50
2019-05-16T17:56:42.537Z,2.57
2019-05-16T17:59:12.913Z,2.17
2019-05-16T18:01:43.175Z,2.70
2019-05-16T18:04:13.523Z,2.20
2019-05-16T18:06:43.754Z,2.60
2019-05-16T18:09:14.009Z,2.80
2019-05-16T18:11:46.658Z,2.63
2019-05-16T18:14:17.230Z,2.60
2019-05-16T18:16:58.571Z,2.13
2019-05-16T18:19:23.820Z,2.80
2019-05-16T18:21:53.962Z,2.33
2019-05-16T18:24:24.215Z,2.70
2019-05-16T18:26:54.225Z,2.53
2019-05-16T18:29:26.785Z,2.40
2019-05-16T18:31:56.497Z,2.53
2019-05-16T18:34:30.007Z,2.40
2019-05-16T18:37:00.324Z,2.77
2019-05-16T18:39:30.693Z,2.30
2019-05-16T18:42:02.781Z,2.33
2019-05-16T18:44:53.218Z,2.73
2019-05-16T18:47:23.436Z,2.30
2019-05-16T18:49:53.611Z,2.50
2019-05-16T18:52:23.908Z,3.27
2019-05-16T18:54:54.150Z,2.77
2019-05-16T18:57:26.815Z,2.83
2019-05-16T18:59:56.794Z,2.77
2019-05-16T19:02:27.342Z,2.93
2019-05-16T19:04:59.410Z,2.93
2019-05-16T19:07:29.635Z,2.60
2019-05-16T19:09:59.852Z,2.93
2019-05-16T19:12:30.777Z,2.73
2019-05-16T19:15:01.037Z,2.70
2019-05-16T19:17:31.809Z,2.73
2019-05-16T19:20:02.190Z,2.60
2019-05-16T19:22:32.585Z,2.63
2019-05-16T19:25:02.952Z,2.83
2019-05-16T19:27:33.366Z,2.47
2019-05-16T19:30:03.776Z,2.60
2019-05-16T19:32:38.965Z,2.30
2019-05-16T19:35:08.450Z,1.80
2019-05-16T19:37:40.768Z,2.57
2019-05-16T19:40:11.556Z,2.50
2019-05-16T19:42:42.161Z,2.87
2019-05-16T19:45:17.210Z,2.87
2019-05-16T19:47:47.471Z,2.10
2019-05-16T19:50:19.229Z,2.07
2019-05-16T19:52:49.594Z,1.83
2019-05-16T19:55:19.959Z,2.10
2019-05-16T19:57:50.281Z,2.47
2019-05-16T20:00:20.529Z,1.90
2019-05-16T20:02:52.351Z,1.73
2019-05-16T20:05:22.910Z,2.43
2019-05-16T20:07:53.081Z,1.90
2019-05-16T20:10:23.310Z,1.97
2019-05-16T20:12:53.576Z,2.10
2019-05-16T20:15:23.802Z,2.20
2019-05-16T20:17:57.786Z,1.97
2019-05-16T20:20:27.539Z,1.83
2019-05-16T20:22:57.756Z,1.93
2019-05-16T20:25:28.016Z,1.90
2019-05-16T20:27:58.177Z,1.70
2019-05-16T20:30:28.463Z,2.33
2019-05-16T20:32:58.718Z,1.90
2019-05-16T20:35:29.026Z,2.30
2019-05-16T20:37:59.150Z,2.07
2019-05-16T20:40:29.326Z,1.90
2019-05-16T20:42:59.587Z,1.90
2019-05-16T20:45:29.671Z,1.97
2019-05-16T20:48:10.871Z,1.77
2019-05-16T20:50:31.768Z,2.30
2019-05-16T20:53:01.948Z,2.17
2019-05-16T20:55:32.146Z,1.80
2019-05-16T20:58:02.288Z,2.33
2019-05-16T21:00:33.505Z,2.07
2019-05-16T21:03:03.620Z,2.50
2019-05-16T21:05:33.879Z,1.90
2019-05-16T21:08:06.277Z,2.03
2019-05-16T21:10:35.858Z,2.40
2019-05-16T21:13:07.171Z,3.23
2019-05-16T21:15:37.705Z,4.67
2019-05-16T21:18:07.907Z,2.80
2019-05-16T21:20:38.889Z,2.63
2019-05-16T21:23:09.249Z,2.47
2019-05-16T21:25:39.523Z,3.50
2019-05-16T21:28:09.782Z,2.60
2019-05-16T21:30:40.149Z,2.47
2019-05-16T21:33:10.543Z,2.67
2019-05-16T21:35:40.790Z,2.37
2019-05-16T21:38:10.997Z,2.67
2019-05-16T21:40:41.189Z,2.50
2019-05-16T21:43:13.039Z,3.37
2019-05-16T21:45:43.214Z,2.57
2019-05-16T21:48:16.330Z,2.60
2019-05-16T21:50:47.140Z,2.60
2019-05-16T21:53:17.836Z,2.40
2019-05-16T21:55:48.020Z,2.60
2019-05-16T21:58:18.271Z,2.73
2019-05-16T22:00:51.374Z,2.80
2019-05-16T22:03:21.891Z,2.57
2019-05-16T22:05:52.159Z,2.77
2019-05-16T22:08:22.341Z,2.70
2019-05-16T22:10:52.898Z,2.83
2019-05-16T22:13:23.391Z,2.90
2019-05-16T22:15:53.704Z,2.40
2019-05-16T22:18:26.661Z,3.20
2019-05-16T22:20:57.113Z,2.70
2019-05-16T22:23:27.605Z,3.20
2019-05-16T22:25:57.731Z,2.93
2019-05-16T22:28:30.106Z,3.10
2019-05-16T22:30:59.828Z,3.23
2019-05-16T22:33:30.011Z,3.33
2019-05-16T22:36:00.150Z,3.63
2019-05-16T22:38:31.955Z,2.90
2019-05-16T22:41:02.193Z,3.47
2019-05-16T22:43:32.402Z,3.60
2019-05-16T22:46:02.656Z,3.23
2019-05-16T22:48:32.756Z,2.93
2019-05-16T22:51:06.952Z,3.33
2019-05-16T22:53:36.921Z,3.40
2019-05-16T22:56:07.531Z,4.13
2019-05-16T22:58:38.910Z,4.07
2019-05-16T23:01:09.112Z,4.23
2019-05-16T23:03:45.785Z,4.20
2019-05-16T23:06:16.353Z,4.07
2019-05-16T23:08:47.128Z,4.80
2019-05-16T23:11:17.509Z,4.17
2019-05-16T23:13:47.726Z,4.43
2019-05-16T23:16:17.907Z,4.57
2019-05-16T23:18:48.191Z,4.97
2019-05-16T23:21:18.379Z,4.37
2019-05-16T23:23:48.556Z,5.00
2019-05-16T23:26:18.748Z,4.63
2019-05-16T23:28:48.913Z,4.90
2019-05-16T23:31:20.974Z,5.47
2019-05-16T23:33:51.060Z,5.13
2019-05-16T23:36:21.240Z,5.43
2019-05-16T23:38:51.410Z,5.40
2019-05-16T23:41:21.688Z,5.27
2019-05-16T23:43:51.834Z,6.10
2019-05-16T23:46:22.003Z,5.67
2019-05-16T23:48:52.209Z,6.00
2019-05-16T23:51:24.013Z,6.30
2019-05-16T23:53:54.246Z,6.37
2019-05-16T23:56:24.387Z,6.37
2019-05-16T23:58:56.849Z,6.83
